sensor_id;sensor_type;location;lat;lon;timestamp;P1;durP1;ratioP1;P2;durP2;ratioP2
17340;SDS011;8788;49.930;8.660;2023-02-17T00:00:32;11.80;;;7.15;;
17340;SDS011;8788;49.930;8.660;2023-02-17T00:02:59;10.80;;;6.45;;
17340;SDS011;8788;49.930;8.660;2023-02-17T00:05:26;12.60;;;6.40;;
17340;SDS011;8788;49.930;8.660;2023-02-17T00:07:53;8.40;;;6.38;;
17340;SDS011;8788;49.930;8.660;2023-02-17T00:10:20;10.38;;;6.07;;
17340;SDS011;8788;49.930;8.660;2023-02-17T00:12:47;10.35;;;6.78;;
17340;SDS011;8788;49.930;8.660;2023-02-17T00:15:16;11.85;;;6.43;;
17340;SDS011;8788;49.930;8.660;2023-02-17T00:17:43;8.80;;;6.40;;
17340;SDS011;8788;49.930;8.660;2023-02-17T00:20:11;9.20;;;6.28;;
17340;SDS011;8788;49.930;8.660;2023-02-17T00:22:38;10.75;;;7.00;;
17340;SDS011;8788;49.930;8.660;2023-02-17T00:25:05;8.05;;;6.32;;
17340;SDS011;8788;49.930;8.660;2023-02-17T00:27:32;7.72;;;5.70;;
17340;SDS011;8788;49.930;8.660;2023-02-17T00:29:59;8.13;;;5.88;;
17340;SDS011;8788;49.930;8.660;2023-02-17T00:32:28;10.63;;;7.13;;
17340;SDS011;8788;49.930;8.660;2023-02-17T00:34:55;8.45;;;5.72;;
17340;SDS011;8788;49.930;8.660;2023-02-17T00:37:22;8.45;;;5.65;;
17340;SDS011;8788;49.930;8.660;2023-02-17T00:39:50;8.82;;;6.32;;
17340;SDS011;8788;49.930;8.660;2023-02-17T00:42:17;9.63;;;6.93;;
17340;SDS011;8788;49.930;8.660;2023-02-17T00:44:44;9.13;;;5.95;;
17340;SDS011;8788;49.930;8.660;2023-02-17T00:47:12;12.00;;;6.35;;
17340;SDS011;8788;49.930;8.660;2023-02-17T00:49:40;9.55;;;6.15;;
17340;SDS011;8788;49.930;8.660;2023-02-17T00:52:07;7.07;;;6.05;;
17340;SDS011;8788;49.930;8.660;2023-02-17T00:54:34;12.80;;;6.10;;
17340;SDS011;8788;49.930;8.660;2023-02-17T00:57:01;10.15;;;6.63;;
17340;SDS011;8788;49.930;8.660;2023-02-17T00:59:30;9.15;;;6.13;;
17340;SDS011;8788;49.930;8.660;2023-02-17T01:01:58;9.55;;;6.75;;
17340;SDS011;8788;49.930;8.660;2023-02-17T01:04:25;10.65;;;7.18;;
17340;SDS011;8788;49.930;8.660;2023-02-17T01:06:53;7.38;;;5.85;;
17340;SDS011;8788;49.930;8.660;2023-02-17T01:09:21;8.63;;;5.88;;
17340;SDS011;8788;49.930;8.660;2023-02-17T01:11:49;8.18;;;6.35;;
17340;SDS011;8788;49.930;8.660;2023-02-17T01:14:16;9.73;;;6.28;;
17340;SDS011;8788;49.930;8.660;2023-02-17T01:16:46;7.07;;;5.72;;
17340;SDS011;8788;49.930;8.660;2023-02-17T01:19:15;8.50;;;6.43;;
17340;SDS011;8788;49.930;8.660;2023-02-17T01:21:46;11.27;;;6.53;;
17340;SDS011;8788;49.930;8.660;2023-02-17T01:24:15;8.43;;;6.00;;
17340;SDS011;8788;49.930;8.660;2023-02-17T01:26:43;8.50;;;5.65;;
17340;SDS011;8788;49.930;8.660;2023-02-17T01:29:10;10.18;;;6.55;;
17340;SDS011;8788;49.930;8.660;2023-02-17T01:31:38;7.40;;;6.18;;
17340;SDS011;8788;49.930;8.660;2023-02-17T01:34:09;8.90;;;5.15;;
17340;SDS011;8788;49.930;8.660;2023-02-17T01:36:36;8.07;;;6.28;;
17340;SDS011;8788;49.930;8.660;2023-02-17T01:39:03;10.48;;;6.03;;
17340;SDS011;8788;49.930;8.660;2023-02-17T01:41:31;8.65;;;5.97;;
17340;SDS011;8788;49.930;8.660;2023-02-17T01:44:07;8.90;;;6.07;;
17340;SDS011;8788;49.930;8.660;2023-02-17T01:46:37;7.63;;;5.78;;
17340;SDS011;8788;49.930;8.660;2023-02-17T01:49:09;10.20;;;6.10;;
17340;SDS011;8788;49.930;8.660;2023-02-17T01:51:47;8.68;;;5.75;;
17340;SDS011;8788;49.930;8.660;2023-02-17T01:54:17;9.88;;;6.47;;
17340;SDS011;8788;49.930;8.660;2023-02-17T01:56:49;10.40;;;5.60;;
17340;SDS011;8788;49.930;8.660;2023-02-17T01:59:19;8.55;;;5.90;;
17340;SDS011;8788;49.930;8.660;2023-02-17T02:01:48;8.20;;;5.72;;
17340;SDS011;8788;49.930;8.660;2023-02-17T02:04:19;11.88;;;6.63;;
17340;SDS011;8788;49.930;8.660;2023-02-17T02:06:49;5.97;;;5.30;;
17340;SDS011;8788;49.930;8.660;2023-02-17T02:09:18;9.05;;;5.70;;
17340;SDS011;8788;49.930;8.660;2023-02-17T02:11:49;7.60;;;6.05;;
17340;SDS011;8788;49.930;8.660;2023-02-17T02:14:17;10.32;;;6.53;;
17340;SDS011;8788;49.930;8.660;2023-02-17T02:16:48;9.05;;;6.55;;
17340;SDS011;8788;49.930;8.660;2023-02-17T02:19:33;6.95;;;5.28;;
17340;SDS011;8788;49.930;8.660;2023-02-17T02:22:22;10.05;;;5.85;;
17340;SDS011;8788;49.930;8.660;2023-02-17T02:25:26;12.32;;;5.78;;
17340;SDS011;8788;49.930;8.660;2023-02-17T02:28:17;10.57;;;6.10;;
17340;SDS011;8788;49.930;8.660;2023-02-17T02:31:00;12.48;;;5.72;;
17340;SDS011;8788;49.930;8.660;2023-02-17T02:33:42;7.75;;;5.25;;
17340;SDS011;8788;49.930;8.660;2023-02-17T02:36:16;12.85;;;6.40;;
17340;SDS011;8788;49.930;8.660;2023-02-17T02:38:51;8.80;;;5.55;;
17340;SDS011;8788;49.930;8.660;2023-02-17T02:41:25;10.07;;;5.82;;
17340;SDS011;8788;49.930;8.660;2023-02-17T02:43:55;7.25;;;5.63;;
17340;SDS011;8788;49.930;8.660;2023-02-17T02:46:23;9.30;;;6.30;;
17340;SDS011;8788;49.930;8.660;2023-02-17T02:48:51;9.38;;;5.63;;
17340;SDS011;8788;49.930;8.660;2023-02-17T02:51:25;6.97;;;5.22;;
17340;SDS011;8788;49.930;8.660;2023-02-17T02:54:08;7.80;;;4.93;;
17340;SDS011;8788;49.930;8.660;2023-02-17T02:59:44;10.60;;;5.90;;
17340;SDS011;8788;49.930;8.660;2023-02-17T03:02:20;13.18;;;6.10;;
17340;SDS011;8788;49.930;8.660;2023-02-17T03:04:56;7.25;;;5.70;;
17340;SDS011;8788;49.930;8.660;2023-02-17T03:07:27;6.38;;;5.00;;
17340;SDS011;8788;49.930;8.660;2023-02-17T03:09:59;7.25;;;5.15;;
17340;SDS011;8788;49.930;8.660;2023-02-17T03:12:26;7.60;;;5.30;;
17340;SDS011;8788;49.930;8.660;2023-02-17T03:14:55;11.02;;;5.15;;
17340;SDS011;8788;49.930;8.660;2023-02-17T03:17:28;5.90;;;5.30;;
17340;SDS011;8788;49.930;8.660;2023-02-17T03:19:58;10.43;;;5.97;;
17340;SDS011;8788;49.930;8.660;2023-02-17T03:22:30;7.78;;;5.72;;
17340;SDS011;8788;49.930;8.660;2023-02-17T03:25:00;10.82;;;5.70;;
17340;SDS011;8788;49.930;8.660;2023-02-17T03:27:27;8.05;;;5.25;;
17340;SDS011;8788;49.930;8.660;2023-02-17T03:29:55;11.10;;;6.22;;
17340;SDS011;8788;49.930;8.660;2023-02-17T03:32:22;10.43;;;6.68;;
17340;SDS011;8788;49.930;8.660;2023-02-17T03:34:49;7.55;;;5.07;;
17340;SDS011;8788;49.930;8.660;2023-02-17T03:37:17;13.27;;;6.90;;
17340;SDS011;8788;49.930;8.660;2023-02-17T03:40:00;8.73;;;5.60;;
17340;SDS011;8788;49.930;8.660;2023-02-17T03:42:27;7.05;;;4.95;;
17340;SDS011;8788;49.930;8.660;2023-02-17T03:44:54;6.65;;;5.53;;
17340;SDS011;8788;49.930;8.660;2023-02-17T03:47:21;7.80;;;5.63;;
17340;SDS011;8788;49.930;8.660;2023-02-17T03:49:49;7.05;;;5.68;;
17340;SDS011;8788;49.930;8.660;2023-02-17T03:52:18;10.55;;;5.72;;
17340;SDS011;8788;49.930;8.660;2023-02-17T03:54:45;10.77;;;5.78;;
17340;SDS011;8788;49.930;8.660;2023-02-17T03:57:12;6.90;;;5.40;;
17340;SDS011;8788;49.930;8.660;2023-02-17T03:59:39;7.40;;;5.22;;
17340;SDS011;8788;49.930;8.660;2023-02-17T04:02:06;7.65;;;5.82;;
17340;SDS011;8788;49.930;8.660;2023-02-17T04:04:33;8.77;;;5.65;;
17340;SDS011;8788;49.930;8.660;2023-02-17T04:07:01;7.90;;;5.85;;
17340;SDS011;8788;49.930;8.660;2023-02-17T04:09:30;8.63;;;5.72;;
17340;SDS011;8788;49.930;8.660;2023-02-17T04:11:57;8.00;;;5.63;;
17340;SDS011;8788;49.930;8.660;2023-02-17T04:14:24;6.55;;;4.88;;
17340;SDS011;8788;49.930;8.660;2023-02-17T04:16:51;8.73;;;5.68;;
17340;SDS011;8788;49.930;8.660;2023-02-17T04:19:18;8.98;;;5.63;;
17340;SDS011;8788;49.930;8.660;2023-02-17T04:21:45;10.73;;;5.40;;
17340;SDS011;8788;49.930;8.660;2023-02-17T04:24:12;8.15;;;5.25;;
17340;SDS011;8788;49.930;8.660;2023-02-17T04:26:41;6.35;;;5.10;;
17340;SDS011;8788;49.930;8.660;2023-02-17T04:29:08;8.48;;;4.80;;
17340;SDS011;8788;49.930;8.660;2023-02-17T04:31:35;6.75;;;4.60;;
17340;SDS011;8788;49.930;8.660;2023-02-17T04:34:02;8.10;;;4.38;;
17340;SDS011;8788;49.930;8.660;2023-02-17T04:36:29;4.72;;;4.25;;
17340;SDS011;8788;49.930;8.660;2023-02-17T04:38:56;6.65;;;4.43;;
17340;SDS011;8788;49.930;8.660;2023-02-17T04:41:23;6.85;;;4.90;;
17340;SDS011;8788;49.930;8.660;2023-02-17T04:43:52;5.00;;;4.18;;
17340;SDS011;8788;49.930;8.660;2023-02-17T04:46:19;5.47;;;4.40;;
17340;SDS011;8788;49.930;8.660;2023-02-17T04:48:46;6.13;;;4.15;;
17340;SDS011;8788;49.930;8.660;2023-02-17T04:51:13;5.00;;;4.15;;
17340;SDS011;8788;49.930;8.660;2023-02-17T04:53:40;6.97;;;4.25;;
17340;SDS011;8788;49.930;8.660;2023-02-17T04:56:07;6.57;;;3.60;;
17340;SDS011;8788;49.930;8.660;2023-02-17T04:58:34;5.35;;;3.85;;
17340;SDS011;8788;49.930;8.660;2023-02-17T05:01:03;6.68;;;4.50;;
17340;SDS011;8788;49.930;8.660;2023-02-17T05:03:30;5.47;;;4.03;;
17340;SDS011;8788;49.930;8.660;2023-02-17T05:05:57;10.18;;;3.72;;
17340;SDS011;8788;49.930;8.660;2023-02-17T05:08:24;5.47;;;4.55;;
17340;SDS011;8788;49.930;8.660;2023-02-17T05:10:51;5.40;;;3.97;;
17340;SDS011;8788;49.930;8.660;2023-02-17T05:13:18;5.10;;;3.35;;
17340;SDS011;8788;49.930;8.660;2023-02-17T05:15:46;4.97;;;4.13;;
17340;SDS011;8788;49.930;8.660;2023-02-17T05:18:14;4.38;;;3.65;;
17340;SDS011;8788;49.930;8.660;2023-02-17T05:20:41;6.18;;;3.72;;
17340;SDS011;8788;49.930;8.660;2023-02-17T05:23:08;4.35;;;3.95;;
17340;SDS011;8788;49.930;8.660;2023-02-17T05:25:35;4.75;;;3.70;;
17340;SDS011;8788;49.930;8.660;2023-02-17T05:28:02;4.20;;;3.75;;
17340;SDS011;8788;49.930;8.660;2023-02-17T05:30:29;4.72;;;3.83;;
17340;SDS011;8788;49.930;8.660;2023-02-17T05:32:56;4.55;;;3.58;;
17340;SDS011;8788;49.930;8.660;2023-02-17T05:35:26;3.78;;;2.80;;
17340;SDS011;8788;49.930;8.660;2023-02-17T05:37:53;5.00;;;3.20;;
17340;SDS011;8788;49.930;8.660;2023-02-17T05:40:20;5.82;;;3.15;;
17340;SDS011;8788;49.930;8.660;2023-02-17T05:42:47;4.13;;;3.45;;
17340;SDS011;8788;49.930;8.660;2023-02-17T05:45:14;3.58;;;3.03;;
17340;SDS011;8788;49.930;8.660;2023-02-17T05:47:42;4.75;;;3.45;;
17340;SDS011;8788;49.930;8.660;2023-02-17T05:50:09;9.27;;;3.85;;
17340;SDS011;8788;49.930;8.660;2023-02-17T05:52:38;5.30;;;3.33;;
17340;SDS011;8788;49.930;8.660;2023-02-17T05:55:05;6.55;;;3.38;;
17340;SDS011;8788;49.930;8.660;2023-02-17T05:57:32;4.30;;;3.42;;
17340;SDS011;8788;49.930;8.660;2023-02-17T05:59:59;3.58;;;2.92;;
17340;SDS011;8788;49.930;8.660;2023-02-17T06:02:37;5.43;;;2.95;;
17340;SDS011;8788;49.930;8.660;2023-02-17T06:05:04;3.22;;;2.83;;
17340;SDS011;8788;49.930;8.660;2023-02-17T06:07:32;4.07;;;2.40;;
17340;SDS011;8788;49.930;8.660;2023-02-17T06:10:03;3.10;;;2.20;;
17340;SDS011;8788;49.930;8.660;2023-02-17T06:12:31;4.65;;;3.38;;
17340;SDS011;8788;49.930;8.660;2023-02-17T06:14:58;6.35;;;3.05;;
17340;SDS011;8788;49.930;8.660;2023-02-17T06:17:25;3.60;;;3.08;;
17340;SDS011;8788;49.930;8.660;2023-02-17T06:19:52;6.82;;;2.50;;
17340;SDS011;8788;49.930;8.660;2023-02-17T06:22:20;4.65;;;3.10;;
17340;SDS011;8788;49.930;8.660;2023-02-17T06:24:47;3.40;;;2.70;;
17340;SDS011;8788;49.930;8.660;2023-02-17T06:27:15;2.85;;;2.25;;
17340;SDS011;8788;49.930;8.660;2023-02-17T06:29:43;5.57;;;2.40;;
17340;SDS011;8788;49.930;8.660;2023-02-17T06:32:10;2.72;;;2.15;;
17340;SDS011;8788;49.930;8.660;2023-02-17T06:34:37;3.80;;;2.72;;
17340;SDS011;8788;49.930;8.660;2023-02-17T06:37:04;3.22;;;2.92;;
17340;SDS011;8788;49.930;8.660;2023-02-17T06:39:31;3.78;;;2.83;;
17340;SDS011;8788;49.930;8.660;2023-02-17T06:41:58;3.13;;;2.28;;
17340;SDS011;8788;49.930;8.660;2023-02-17T06:44:27;2.85;;;2.58;;
17340;SDS011;8788;49.930;8.660;2023-02-17T06:46:54;2.55;;;2.35;;
17340;SDS011;8788;49.930;8.660;2023-02-17T06:49:21;4.07;;;2.63;;
17340;SDS011;8788;49.930;8.660;2023-02-17T06:51:48;3.35;;;3.05;;
17340;SDS011;8788;49.930;8.660;2023-02-17T06:54:15;2.70;;;2.45;;
17340;SDS011;8788;49.930;8.660;2023-02-17T06:56:43;3.03;;;2.33;;
17340;SDS011;8788;49.930;8.660;2023-02-17T06:59:10;2.75;;;2.05;;
17340;SDS011;8788;49.930;8.660;2023-02-17T07:01:38;6.15;;;2.53;;
17340;SDS011;8788;49.930;8.660;2023-02-17T07:04:05;3.15;;;2.80;;
17340;SDS011;8788;49.930;8.660;2023-02-17T07:06:32;2.53;;;2.33;;
17340;SDS011;8788;49.930;8.660;2023-02-17T07:08:59;2.45;;;2.25;;
17340;SDS011;8788;49.930;8.660;2023-02-17T07:11:27;2.92;;;2.53;;
17340;SDS011;8788;49.930;8.660;2023-02-17T07:13:57;3.75;;;2.10;;
17340;SDS011;8788;49.930;8.660;2023-02-17T07:16:24;2.50;;;2.30;;
17340;SDS011;8788;49.930;8.660;2023-02-17T07:18:53;2.95;;;2.63;;
17340;SDS011;8788;49.930;8.660;2023-02-17T07:21:20;3.33;;;2.30;;
17340;SDS011;8788;49.930;8.660;2023-02-17T07:23:47;2.60;;;2.38;;
17340;SDS011;8788;49.930;8.660;2023-02-17T07:26:14;2.60;;;2.17;;
17340;SDS011;8788;49.930;8.660;2023-02-17T07:28:41;4.60;;;2.50;;
17340;SDS011;8788;49.930;8.660;2023-02-17T07:31:09;2.63;;;2.15;;
17340;SDS011;8788;49.930;8.660;2023-02-17T07:33:41;2.72;;;2.38;;
17340;SDS011;8788;49.930;8.660;2023-02-17T07:36:12;2.35;;;2.15;;
17340;SDS011;8788;49.930;8.660;2023-02-17T07:38:41;2.65;;;1.95;;
17340;SDS011;8788;49.930;8.660;2023-02-17T07:41:10;2.90;;;2.45;;
17340;SDS011;8788;49.930;8.660;2023-02-17T07:43:39;4.75;;;2.35;;
17340;SDS011;8788;49.930;8.660;2023-02-17T07:46:07;2.85;;;2.30;;
17340;SDS011;8788;49.930;8.660;2023-02-17T07:48:35;2.42;;;2.03;;
17340;SDS011;8788;49.930;8.660;2023-02-17T07:51:03;2.33;;;1.90;;
17340;SDS011;8788;49.930;8.660;2023-02-17T07:53:33;1.77;;;1.67;;
17340;SDS011;8788;49.930;8.660;2023-02-17T07:56:01;2.60;;;2.38;;
17340;SDS011;8788;49.930;8.660;2023-02-17T07:58:30;2.72;;;2.05;;
17340;SDS011;8788;49.930;8.660;2023-02-17T08:00:57;2.10;;;1.90;;
17340;SDS011;8788;49.930;8.660;2023-02-17T08:03:24;3.33;;;2.10;;
17340;SDS011;8788;49.930;8.660;2023-02-17T08:05:51;1.90;;;1.70;;
17340;SDS011;8788;49.930;8.660;2023-02-17T08:08:18;2.30;;;1.80;;
17340;SDS011;8788;49.930;8.660;2023-02-17T08:11:04;1.98;;;1.73;;
17340;SDS011;8788;49.930;8.660;2023-02-17T08:13:49;1.95;;;1.80;;
17340;SDS011;8788;49.930;8.660;2023-02-17T08:16:16;1.98;;;1.52;;
17340;SDS011;8788;49.930;8.660;2023-02-17T08:18:43;1.75;;;1.52;;
17340;SDS011;8788;49.930;8.660;2023-02-17T08:21:10;1.85;;;1.67;;
17340;SDS011;8788;49.930;8.660;2023-02-17T08:23:37;2.03;;;1.73;;
17340;SDS011;8788;49.930;8.660;2023-02-17T08:26:06;1.58;;;1.48;;
17340;SDS011;8788;49.930;8.660;2023-02-17T08:28:33;1.75;;;1.58;;
17340;SDS011;8788;49.930;8.660;2023-02-17T08:31:00;2.03;;;1.83;;
17340;SDS011;8788;49.930;8.660;2023-02-17T08:33:27;2.08;;;1.88;;
17340;SDS011;8788;49.930;8.660;2023-02-17T08:35:55;2.05;;;1.70;;
17340;SDS011;8788;49.930;8.660;2023-02-17T08:38:22;2.42;;;1.60;;
17340;SDS011;8788;49.930;8.660;2023-02-17T08:40:51;1.75;;;1.65;;
17340;SDS011;8788;49.930;8.660;2023-02-17T08:43:19;1.88;;;1.67;;
17340;SDS011;8788;49.930;8.660;2023-02-17T08:45:46;2.53;;;2.22;;
17340;SDS011;8788;49.930;8.660;2023-02-17T08:48:14;2.00;;;1.90;;
17340;SDS011;8788;49.930;8.660;2023-02-17T08:50:41;3.05;;;2.22;;
17340;SDS011;8788;49.930;8.660;2023-02-17T08:53:08;4.25;;;2.05;;
17340;SDS011;8788;49.930;8.660;2023-02-17T08:55:35;2.05;;;1.80;;
17340;SDS011;8788;49.930;8.660;2023-02-17T08:58:02;2.17;;;1.95;;
17340;SDS011;8788;49.930;8.660;2023-02-17T09:00:31;1.90;;;1.80;;
17340;SDS011;8788;49.930;8.660;2023-02-17T09:02:58;3.83;;;2.15;;
17340;SDS011;8788;49.930;8.660;2023-02-17T09:05:25;2.97;;;2.67;;
17340;SDS011;8788;49.930;8.660;2023-02-17T09:07:52;2.55;;;2.35;;
17340;SDS011;8788;49.930;8.660;2023-02-17T09:10:19;3.45;;;2.30;;
17340;SDS011;8788;49.930;8.660;2023-02-17T09:12:46;3.90;;;2.90;;
17340;SDS011;8788;49.930;8.660;2023-02-17T09:15:13;3.55;;;3.20;;
17340;SDS011;8788;49.930;8.660;2023-02-17T09:17:41;3.20;;;2.88;;
17340;SDS011;8788;49.930;8.660;2023-02-17T09:20:09;3.47;;;2.35;;
17340;SDS011;8788;49.930;8.660;2023-02-17T09:22:36;2.90;;;2.50;;
17340;SDS011;8788;49.930;8.660;2023-02-17T09:25:05;3.33;;;3.00;;
17340;SDS011;8788;49.930;8.660;2023-02-17T09:27:32;4.00;;;3.60;;
17340;SDS011;8788;49.930;8.660;2023-02-17T09:29:59;4.10;;;3.05;;
17340;SDS011;8788;49.930;8.660;2023-02-17T09:32:26;3.47;;;2.90;;
17340;SDS011;8788;49.930;8.660;2023-02-17T09:34:55;4.20;;;3.42;;
17340;SDS011;8788;49.930;8.660;2023-02-17T09:37:25;5.38;;;3.50;;
17340;SDS011;8788;49.930;8.660;2023-02-17T09:39:52;3.88;;;3.35;;
17340;SDS011;8788;49.930;8.660;2023-02-17T09:42:20;3.95;;;3.47;;
17340;SDS011;8788;49.930;8.660;2023-02-17T09:44:49;3.35;;;2.85;;
17340;SDS011;8788;49.930;8.660;2023-02-17T09:47:22;2.97;;;2.35;;
17340;SDS011;8788;49.930;8.660;2023-02-17T09:49:53;3.47;;;2.67;;
17340;SDS011;8788;49.930;8.660;2023-02-17T09:52:25;3.53;;;2.55;;
17340;SDS011;8788;49.930;8.660;2023-02-17T09:54:58;3.45;;;2.42;;
17340;SDS011;8788;49.930;8.660;2023-02-17T09:57:30;3.00;;;2.70;;
17340;SDS011;8788;49.930;8.660;2023-02-17T10:00:02;3.38;;;2.72;;
17340;SDS011;8788;49.930;8.660;2023-02-17T10:02:38;4.82;;;2.92;;
17340;SDS011;8788;49.930;8.660;2023-02-17T10:05:14;3.60;;;3.30;;
17340;SDS011;8788;49.930;8.660;2023-02-17T10:07:45;2.83;;;2.53;;
17340;SDS011;8788;49.930;8.660;2023-02-17T10:10:15;4.55;;;3.45;;
17340;SDS011;8788;49.930;8.660;2023-02-17T10:12:47;5.20;;;3.03;;
17340;SDS011;8788;49.930;8.660;2023-02-17T10:15:20;6.97;;;4.20;;
17340;SDS011;8788;49.930;8.660;2023-02-17T10:17:50;8.52;;;4.13;;
17340;SDS011;8788;49.930;8.660;2023-02-17T10:20:24;3.30;;;2.90;;
17340;SDS011;8788;49.930;8.660;2023-02-17T10:22:58;6.50;;;3.38;;
17340;SDS011;8788;49.930;8.660;2023-02-17T10:25:38;4.32;;;3.30;;
17340;SDS011;8788;49.930;8.660;2023-02-17T10:28:16;5.78;;;3.40;;
17340;SDS011;8788;49.930;8.660;2023-02-17T10:30:48;3.58;;;2.92;;
17340;SDS011;8788;49.930;8.660;2023-02-17T10:33:24;3.42;;;3.00;;
17340;SDS011;8788;49.930;8.660;2023-02-17T10:35:59;3.53;;;3.20;;
17340;SDS011;8788;49.930;8.660;2023-02-17T10:38:40;4.07;;;3.00;;
17340;SDS011;8788;49.930;8.660;2023-02-17T10:41:13;5.82;;;3.20;;
17340;SDS011;8788;49.930;8.660;2023-02-17T10:43:43;5.50;;;3.63;;
17340;SDS011;8788;49.930;8.660;2023-02-17T10:46:11;5.93;;;3.55;;
17340;SDS011;8788;49.930;8.660;2023-02-17T10:48:41;3.15;;;2.75;;
17340;SDS011;8788;49.930;8.660;2023-02-17T10:51:13;5.00;;;3.33;;
17340;SDS011;8788;49.930;8.660;2023-02-17T10:53:43;5.20;;;3.30;;
17340;SDS011;8788;49.930;8.660;2023-02-17T10:56:15;5.53;;;3.97;;
17340;SDS011;8788;49.930;8.660;2023-02-17T10:58:48;4.18;;;2.70;;
17340;SDS011;8788;49.930;8.660;2023-02-17T11:01:19;3.83;;;2.88;;
17340;SDS011;8788;49.930;8.660;2023-02-17T11:03:57;3.65;;;2.42;;
17340;SDS011;8788;49.930;8.660;2023-02-17T11:06:27;4.90;;;3.33;;
17340;SDS011;8788;49.930;8.660;2023-02-17T11:08:57;3.28;;;2.85;;
17340;SDS011;8788;49.930;8.660;2023-02-17T11:11:26;4.50;;;2.60;;
17340;SDS011;8788;49.930;8.660;2023-02-17T11:13:57;2.97;;;2.58;;
17340;SDS011;8788;49.930;8.660;2023-02-17T11:16:32;3.33;;;2.20;;
17340;SDS011;8788;49.930;8.660;2023-02-17T11:19:01;2.70;;;2.28;;
17340;SDS011;8788;49.930;8.660;2023-02-17T11:21:31;2.70;;;2.45;;
17340;SDS011;8788;49.930;8.660;2023-02-17T11:23:59;2.47;;;2.17;;
17340;SDS011;8788;49.930;8.660;2023-02-17T11:26:28;3.40;;;2.30;;
17340;SDS011;8788;49.930;8.660;2023-02-17T11:29:05;2.38;;;2.00;;
17340;SDS011;8788;49.930;8.660;2023-02-17T11:31:34;3.03;;;1.90;;
17340;SDS011;8788;49.930;8.660;2023-02-17T11:34:09;2.33;;;1.90;;
17340;SDS011;8788;49.930;8.660;2023-02-17T11:36:39;3.08;;;2.03;;
17340;SDS011;8788;49.930;8.660;2023-02-17T11:39:17;2.20;;;2.00;;
17340;SDS011;8788;49.930;8.660;2023-02-17T11:41:45;2.42;;;2.22;;
17340;SDS011;8788;49.930;8.660;2023-02-17T11:44:20;2.13;;;1.92;;
17340;SDS011;8788;49.930;8.660;2023-02-17T11:46:50;1.80;;;1.70;;
17340;SDS011;8788;49.930;8.660;2023-02-17T11:52:35;2.15;;;1.95;;
17340;SDS011;8788;49.930;8.660;2023-02-17T11:55:14;4.25;;;2.15;;
17340;SDS011;8788;49.930;8.660;2023-02-17T11:57:50;2.20;;;2.00;;
17340;SDS011;8788;49.930;8.660;2023-02-17T12:00:29;2.25;;;1.95;;
17340;SDS011;8788;49.930;8.660;2023-02-17T12:06:07;2.47;;;2.28;;
17340;SDS011;8788;49.930;8.660;2023-02-17T12:11:30;3.28;;;2.97;;
17340;SDS011;8788;49.930;8.660;2023-02-17T12:14:08;4.05;;;3.10;;
17340;SDS011;8788;49.930;8.660;2023-02-17T12:16:45;4.30;;;3.33;;
17340;SDS011;8788;49.930;8.660;2023-02-17T12:19:24;4.40;;;3.80;;
17340;SDS011;8788;49.930;8.660;2023-02-17T12:22:09;4.13;;;3.72;;
17340;SDS011;8788;49.930;8.660;2023-02-17T12:24:50;6.32;;;4.15;;
17340;SDS011;8788;49.930;8.660;2023-02-17T12:27:42;4.50;;;3.58;;
17340;SDS011;8788;49.930;8.660;2023-02-17T12:30:26;5.00;;;4.03;;
17340;SDS011;8788;49.930;8.660;2023-02-17T12:33:15;6.32;;;3.45;;
17340;SDS011;8788;49.930;8.660;2023-02-17T12:35:54;4.57;;;3.58;;
17340;SDS011;8788;49.930;8.660;2023-02-17T12:38:23;4.35;;;3.55;;
17340;SDS011;8788;49.930;8.660;2023-02-17T12:40:54;5.45;;;3.97;;
17340;SDS011;8788;49.930;8.660;2023-02-17T12:43:29;4.68;;;3.30;;
17340;SDS011;8788;49.930;8.660;2023-02-17T12:46:04;5.00;;;2.15;;
17340;SDS011;8788;49.930;8.660;2023-02-17T12:48:35;2.03;;;1.80;;
17340;SDS011;8788;49.930;8.660;2023-02-17T12:51:08;2.88;;;2.63;;
17340;SDS011;8788;49.930;8.660;2023-02-17T12:53:44;2.05;;;1.90;;
17340;SDS011;8788;49.930;8.660;2023-02-17T12:56:32;3.03;;;2.72;;
17340;SDS011;8788;49.930;8.660;2023-02-17T12:59:13;2.90;;;2.70;;
17340;SDS011;8788;49.930;8.660;2023-02-17T13:01:47;3.38;;;2.75;;
17340;SDS011;8788;49.930;8.660;2023-02-17T13:04:21;2.88;;;2.35;;
17340;SDS011;8788;49.930;8.660;2023-02-17T13:06:54;2.88;;;2.60;;
17340;SDS011;8788;49.930;8.660;2023-02-17T13:09:33;1.67;;;1.58;;
17340;SDS011;8788;49.930;8.660;2023-02-17T13:12:07;1.80;;;1.70;;
17340;SDS011;8788;49.930;8.660;2023-02-17T13:14:40;1.65;;;1.55;;
17340;SDS011;8788;49.930;8.660;2023-02-17T13:17:21;1.65;;;1.55;;
17340;SDS011;8788;49.930;8.660;2023-02-17T13:20:01;1.67;;;1.35;;
17340;SDS011;8788;49.930;8.660;2023-02-17T13:22:30;1.70;;;1.35;;
17340;SDS011;8788;49.930;8.660;2023-02-17T13:24:58;1.10;;;1.00;;
17340;SDS011;8788;49.930;8.660;2023-02-17T13:27:31;1.75;;;1.13;;
17340;SDS011;8788;49.930;8.660;2023-02-17T13:30:01;1.52;;;1.42;;
17340;SDS011;8788;49.930;8.660;2023-02-17T13:32:30;1.40;;;1.30;;
17340;SDS011;8788;49.930;8.660;2023-02-17T13:35:00;1.63;;;1.52;;
17340;SDS011;8788;49.930;8.660;2023-02-17T13:37:38;1.77;;;1.40;;
17340;SDS011;8788;49.930;8.660;2023-02-17T13:43:18;1.90;;;1.70;;
17340;SDS011;8788;49.930;8.660;2023-02-17T13:45:48;1.80;;;1.70;;
17340;SDS011;8788;49.930;8.660;2023-02-17T13:48:23;1.80;;;1.70;;
17340;SDS011;8788;49.930;8.660;2023-02-17T13:50:52;2.95;;;1.67;;
17340;SDS011;8788;49.930;8.660;2023-02-17T13:53:24;2.42;;;1.70;;
17340;SDS011;8788;49.930;8.660;2023-02-17T13:55:54;1.60;;;1.50;;
17340;SDS011;8788;49.930;8.660;2023-02-17T13:58:25;2.35;;;1.67;;
17340;SDS011;8788;49.930;8.660;2023-02-17T14:00:55;2.05;;;1.80;;
17340;SDS011;8788;49.930;8.660;2023-02-17T14:03:24;1.45;;;1.35;;
17340;SDS011;8788;49.930;8.660;2023-02-17T14:05:53;2.95;;;1.83;;
17340;SDS011;8788;49.930;8.660;2023-02-17T14:08:27;1.75;;;1.60;;
17340;SDS011;8788;49.930;8.660;2023-02-17T14:11:02;2.05;;;1.85;;
17340;SDS011;8788;49.930;8.660;2023-02-17T14:13:35;2.22;;;1.90;;
17340;SDS011;8788;49.930;8.660;2023-02-17T14:16:04;3.60;;;2.10;;
17340;SDS011;8788;49.930;8.660;2023-02-17T14:18:33;3.00;;;1.98;;
17340;SDS011;8788;49.930;8.660;2023-02-17T14:21:03;2.13;;;1.80;;
17340;SDS011;8788;49.930;8.660;2023-02-17T14:23:42;2.70;;;2.38;;
17340;SDS011;8788;49.930;8.660;2023-02-17T14:26:11;2.15;;;1.75;;
17340;SDS011;8788;49.930;8.660;2023-02-17T14:28:52;1.88;;;1.77;;
17340;SDS011;8788;49.930;8.660;2023-02-17T14:31:20;2.00;;;1.80;;
17340;SDS011;8788;49.930;8.660;2023-02-17T14:33:52;3.28;;;1.98;;
17340;SDS011;8788;49.930;8.660;2023-02-17T14:36:26;2.05;;;1.85;;
17340;SDS011;8788;49.930;8.660;2023-02-17T14:38:55;2.60;;;1.83;;
17340;SDS011;8788;49.930;8.660;2023-02-17T14:41:23;1.88;;;1.77;;
17340;SDS011;8788;49.930;8.660;2023-02-17T14:43:52;2.10;;;1.88;;
17340;SDS011;8788;49.930;8.660;2023-02-17T14:46:19;2.25;;;1.90;;
17340;SDS011;8788;49.930;8.660;2023-02-17T14:48:47;2.15;;;2.00;;
17340;SDS011;8788;49.930;8.660;2023-02-17T14:51:15;3.45;;;1.52;;
17340;SDS011;8788;49.930;8.660;2023-02-17T14:53:44;2.38;;;2.10;;
17340;SDS011;8788;49.930;8.660;2023-02-17T14:56:14;2.25;;;2.05;;
17340;SDS011;8788;49.930;8.660;2023-02-17T14:58:46;2.30;;;2.10;;
17340;SDS011;8788;49.930;8.660;2023-02-17T15:01:15;2.20;;;1.90;;
17340;SDS011;8788;49.930;8.660;2023-02-17T15:03:43;3.03;;;2.47;;
17340;SDS011;8788;49.930;8.660;2023-02-17T15:06:12;2.50;;;2.30;;
17340;SDS011;8788;49.930;8.660;2023-02-17T15:08:41;3.08;;;2.75;;
17340;SDS011;8788;49.930;8.660;2023-02-17T15:11:11;4.35;;;2.40;;
17340;SDS011;8788;49.930;8.660;2023-02-17T15:13:44;3.58;;;2.60;;
17340;SDS011;8788;49.930;8.660;2023-02-17T15:16:12;3.70;;;3.00;;
17340;SDS011;8788;49.930;8.660;2023-02-17T15:18:41;4.72;;;2.42;;
17340;SDS011;8788;49.930;8.660;2023-02-17T15:21:16;3.42;;;2.90;;
17340;SDS011;8788;49.930;8.660;2023-02-17T15:23:49;3.45;;;2.63;;
17340;SDS011;8788;49.930;8.660;2023-02-17T15:26:17;3.45;;;2.97;;
17340;SDS011;8788;49.930;8.660;2023-02-17T15:28:44;3.10;;;2.80;;
17340;SDS011;8788;49.930;8.660;2023-02-17T15:31:12;3.45;;;2.75;;
17340;SDS011;8788;49.930;8.660;2023-02-17T15:33:42;3.47;;;2.75;;